Terminal Aerodrome Forecast
Issued by NWS Wilmington, NC

Home | Current Version | Previous Version | Text Only | Print | Product List | Glossary On
Versions: 1 2 3 4 5 6 7 8 9 10 11 12 13 14
000
FTUS42 KILM 011405 AAA
TAFMYR
TAF AMD
KMYR 011405Z 0114/0212 25007KT P6SM SCT035 SCT250
      TEMPO 0114/0115 BKN010
     FM011800 23008KT P6SM VCSH SCT040 SCT080
     FM012100 20014KT P6SM FEW050 SCT120
     FM020400 25006KT P6SM VCSH BKN070=

USA.gov is the U.S. government's official web portal to all federal, state and local government web resources and services.